Terminal Aerodrome Forecast
Issued by NWS

Home | Current Version | Previous Version | Text Only | Print | Product List | Glossary On
Versions: 1 2 3 4 5 6 7 8 9 10 11 12 13 14 15 16 17 18 19 20 21 22
000
FTUS44 KHGX 281123
TAFCXO
TAF
KCXO 281123Z 2812/2912 08005KT P6SM BKN015
      TEMPO 2812/2813 2SM BR BKN002 OVC015
     FM281500 09005KT P6SM BKN025
     FM281700 10005KT P6SM VCSH BKN035
     FM282100 12006G16KT P6SM BKN050
     FM290100 13005KT P6SM SCT100
     FM290900 11003KT 3SM BR FEW010=

USA.gov is the U.S. government's official web portal to all federal, state and local government web resources and services.